Terminal Aerodrome Forecast
Issued by NWS Springfield, MO

Home | Current Version | Previous Version | Text Only | Print | Product List | Glossary On
Versions: 1 2 3 4 5 6 7 8 9 10 11 12
000
FTUS43 KSGF 260520
TAFSGF
TAF
KSGF 260520Z 2606/2706 17005KT P6SM SCT150
     FM261100 16004KT P6SM BKN200
     FM261200 16004KT P6SM VCTS BKN200CB
     FM261300 17005KT P6SM BKN200
     FM261400 18005KT P6SM VCTS BKN200CB
     FM261500 18005KT P6SM BKN200 PROB30 2615/2616 4SM -TSRA
      OVC040CB=

USA.gov is the U.S. government's official web portal to all federal, state and local government web resources and services.